BLF1050 UTDD-UBBB
Flight info
| Callsign | BLF1050 |
|---|---|
| Flight time | 2h 32m |
| Altitude | 34000 |
| Route | SOPNO1A SOPNO Q169 INDUD Z777 MANAT R226 AKRAM A477 BABUM A909 RODAR M11 AMOKU |
| Aircraft | B738/M-SDE2E3FGHIRWXY/LB1 |
Departure
| Time | 2026-04-26 15:37 |
|---|---|
| Airport | Dushanbe International Airport (UTDD) |
Arrival
| Time | 2026-04-26 18:09 |
|---|---|
| Airport | Heydar Aliyev International Airport (UBBB) |
| Time | Latitude | Longitude | Altitude | Speed | Heading |
|---|---|---|---|---|---|
| 2026-04-26 15:06 | 38.54802 | 68.81514 | 2581 ft | 0 kts | 360° |
| 2026-04-26 15:26 | 38.54790 | 68.81514 | 2581 ft | 3 kts | 359° |
| 2026-04-26 15:27 | 38.54766 | 68.81516 | 2581 ft | 3 kts | 356° |
| 2026-04-26 15:27 | 38.54743 | 68.81518 | 2575 ft | 3 kts | 352° |
| 2026-04-26 15:27 | 38.54721 | 68.81524 | 2581 ft | 3 kts | 338° |
| 2026-04-26 15:27 | 38.54710 | 68.81533 | 2581 ft | 2 kts | 314° |
| 2026-04-26 15:28 | 38.54703 | 68.81544 | 2581 ft | 2 kts | 287° |
| 2026-04-26 15:28 | 38.54701 | 68.81558 | 2581 ft | 2 kts | 274° |
| 2026-04-26 15:28 | 38.54700 | 68.81572 | 2581 ft | 2 kts | 270° |
| 2026-04-26 15:28 | 38.54700 | 68.81574 | 2581 ft | 0 kts | 270° |
| 2026-04-26 15:30 | 38.54700 | 68.81565 | 2575 ft | 3 kts | 263° |
| 2026-04-26 15:30 | 38.54691 | 68.81518 | 2575 ft | 9 kts | 263° |
| 2026-04-26 15:30 | 38.54689 | 68.81416 | 2581 ft | 14 kts | 269° |
| 2026-04-26 15:31 | 38.54689 | 68.81270 | 2581 ft | 17 kts | 271° |
| 2026-04-26 15:31 | 38.54691 | 68.80943 | 2576 ft | 20 kts | 270° |
| 2026-04-26 15:31 | 38.54692 | 68.80786 | 2581 ft | 15 kts | 269° |
| 2026-04-26 15:32 | 38.54652 | 68.80671 | 2577 ft | 10 kts | 181° |
| 2026-04-26 15:32 | 38.54570 | 68.80668 | 2581 ft | 1 kts | 181° |
| 2026-04-26 15:32 | 38.54566 | 68.80668 | 2581 ft | 0 kts | 181° |
| 2026-04-26 15:34 | 38.54562 | 68.80668 | 2581 ft | 2 kts | 181° |
| 2026-04-26 15:35 | 38.54539 | 68.80667 | 2581 ft | 5 kts | 180° |
| 2026-04-26 15:35 | 38.54492 | 68.80670 | 2578 ft | 8 kts | 179° |
| 2026-04-26 15:35 | 38.54422 | 68.80671 | 2581 ft | 11 kts | 179° |
| 2026-04-26 15:35 | 38.54374 | 68.80737 | 2577 ft | 12 kts | 96° |
| 2026-04-26 15:36 | 38.54373 | 68.80851 | 2576 ft | 16 kts | 90° |
| 2026-04-26 15:36 | 38.54372 | 68.81172 | 2578 ft | 69 kts | 90° |
| 2026-04-26 15:36 | 38.54369 | 68.82073 | 2577 ft | 132 kts | 90° |
| 2026-04-26 15:36 | 38.54373 | 68.83481 | 2642 ft | 178 kts | 89° |
| 2026-04-26 15:37 | 38.54368 | 68.85089 | 3245 ft | 188 kts | 90° |
| 2026-04-26 15:37 | 38.54321 | 68.86779 | 4009 ft | 191 kts | 92° |
| 2026-04-26 15:37 | 38.54268 | 68.88499 | 4709 ft | 197 kts | 90° |
| 2026-04-26 15:37 | 38.54280 | 68.90304 | 5135 ft | 212 kts | 89° |
| 2026-04-26 15:38 | 38.54308 | 68.92290 | 5305 ft | 233 kts | 89° |
| 2026-04-26 15:38 | 38.54330 | 68.94446 | 5508 ft | 251 kts | 89° |
| 2026-04-26 15:38 | 38.54340 | 68.96730 | 5822 ft | 264 kts | 90° |
| 2026-04-26 15:38 | 38.54343 | 68.99122 | 6265 ft | 273 kts | 90° |
| 2026-04-26 15:39 | 38.54343 | 69.01564 | 6962 ft | 275 kts | 90° |
| 2026-04-26 15:39 | 38.54273 | 69.04001 | 7741 ft | 275 kts | 102° |
| 2026-04-26 15:39 | 38.53608 | 69.06255 | 8444 ft | 276 kts | 121° |
| 2026-04-26 15:39 | 38.52861 | 69.07612 | 8890 ft | 278 kts | 131° |
| 2026-04-26 15:40 | 38.51048 | 69.09964 | 9766 ft | 282 kts | 134° |
| 2026-04-26 15:40 | 38.49418 | 69.11327 | 10376 ft | 288 kts | 164° |
| 2026-04-26 15:40 | 38.47371 | 69.11523 | 10605 ft | 307 kts | 185° |
| 2026-04-26 15:40 | 38.45173 | 69.11242 | 10786 ft | 328 kts | 185° |
| 2026-04-26 15:41 | 38.42876 | 69.10645 | 10911 ft | 349 kts | 204° |
| 2026-04-26 15:41 | 38.40891 | 69.08764 | 11075 ft | 367 kts | 231° |
| 2026-04-26 15:41 | 38.39705 | 69.05849 | 11434 ft | 378 kts | 254° |
| 2026-04-26 15:41 | 38.39054 | 69.02580 | 12012 ft | 382 kts | 256° |
| 2026-04-26 15:42 | 38.38381 | 68.99293 | 12628 ft | 384 kts | 254° |
| 2026-04-26 15:42 | 38.37650 | 68.96009 | 13260 ft | 386 kts | 253° |
| 2026-04-26 15:42 | 38.36879 | 68.92714 | 13879 ft | 389 kts | 252° |
| 2026-04-26 15:42 | 38.36205 | 68.89365 | 14431 ft | 393 kts | 263° |
| 2026-04-26 15:43 | 38.36375 | 68.85886 | 14997 ft | 397 kts | 284° |
| 2026-04-26 15:43 | 38.37442 | 68.82691 | 15572 ft | 400 kts | 302° |
| 2026-04-26 15:43 | 38.41338 | 68.77553 | 16635 ft | 407 kts | 317° |
| 2026-04-26 15:44 | 38.43452 | 68.75118 | 17103 ft | 411 kts | 317° |
| 2026-04-26 15:44 | 38.47682 | 68.70156 | 18040 ft | 416 kts | 316° |
| 2026-04-26 15:44 | 38.49788 | 68.67635 | 18052 ft | 413 kts | 315° |
| 2026-04-26 15:45 | 38.53441 | 68.62015 | 18077 ft | 412 kts | 293° |
| 2026-04-26 15:45 | 38.54276 | 68.58531 | 18076 ft | 411 kts | 277° |
| 2026-04-26 15:46 | 38.54380 | 68.51249 | 18075 ft | 410 kts | 268° |
| 2026-04-26 15:46 | 38.54349 | 68.47594 | 18068 ft | 411 kts | 269° |
| 2026-04-26 15:46 | 38.54326 | 68.43998 | 18066 ft | 409 kts | 269° |
| 2026-04-26 15:46 | 38.54321 | 68.42773 | 18065 ft | 409 kts | 269° |
| 2026-04-26 15:47 | 38.54314 | 68.36743 | 18070 ft | 409 kts | 269° |
| 2026-04-26 15:47 | 38.54322 | 68.29483 | 18073 ft | 409 kts | 269° |
| 2026-04-26 15:47 | 38.54328 | 68.25855 | 18075 ft | 408 kts | 269° |
| 2026-04-26 15:48 | 38.54331 | 68.22213 | 18077 ft | 408 kts | 269° |
| 2026-04-26 15:48 | 38.54334 | 68.18583 | 18081 ft | 408 kts | 269° |
| 2026-04-26 15:48 | 38.54335 | 68.14948 | 18085 ft | 409 kts | 269° |
| 2026-04-26 15:48 | 38.54336 | 68.11314 | 18084 ft | 410 kts | 269° |
| 2026-04-26 15:49 | 38.54079 | 68.07746 | 18071 ft | 409 kts | 255° |
| 2026-04-26 15:49 | 38.52970 | 68.04426 | 18086 ft | 408 kts | 237° |
| 2026-04-26 15:49 | 38.51201 | 68.01593 | 18068 ft | 409 kts | 227° |
| 2026-04-26 15:49 | 38.49237 | 67.98967 | 18061 ft | 409 kts | 225° |
| 2026-04-26 15:50 | 38.47231 | 67.96387 | 18054 ft | 409 kts | 225° |
| 2026-04-26 15:50 | 38.45868 | 67.94656 | 18047 ft | 408 kts | 225° |
| 2026-04-26 15:50 | 38.43880 | 67.92143 | 18047 ft | 407 kts | 225° |
| 2026-04-26 15:50 | 38.41866 | 67.89606 | 18056 ft | 408 kts | 225° |
| 2026-04-26 15:51 | 38.39845 | 67.87065 | 18057 ft | 408 kts | 225° |
| 2026-04-26 15:51 | 38.37818 | 67.84522 | 18055 ft | 408 kts | 225° |
| 2026-04-26 15:51 | 38.35792 | 67.81982 | 18048 ft | 407 kts | 225° |
| 2026-04-26 15:51 | 38.33771 | 67.79447 | 18047 ft | 408 kts | 225° |
| 2026-04-26 15:52 | 38.31750 | 67.76915 | 18046 ft | 408 kts | 225° |
| 2026-04-26 15:52 | 38.29722 | 67.74374 | 18043 ft | 407 kts | 225° |
| 2026-04-26 15:52 | 38.27726 | 67.71875 | 18049 ft | 408 kts | 225° |
| 2026-04-26 15:52 | 38.26355 | 67.70161 | 18047 ft | 408 kts | 225° |
| 2026-04-26 15:53 | 38.23668 | 67.66803 | 18045 ft | 407 kts | 225° |
| 2026-04-26 15:53 | 38.21649 | 67.64281 | 18046 ft | 407 kts | 225° |
| 2026-04-26 15:53 | 38.19629 | 67.61760 | 18049 ft | 407 kts | 225° |
| 2026-04-26 15:53 | 38.17608 | 67.59239 | 17878 ft | 409 kts | 225° |
| 2026-04-26 15:54 | 38.15574 | 67.56703 | 17561 ft | 404 kts | 224° |
| 2026-04-26 15:54 | 38.13611 | 67.54255 | 17159 ft | 398 kts | 224° |
| 2026-04-26 15:54 | 38.11641 | 67.51794 | 16696 ft | 393 kts | 224° |
| 2026-04-26 15:54 | 38.09709 | 67.49376 | 16232 ft | 385 kts | 224° |
| 2026-04-26 15:55 | 38.07832 | 67.47020 | 15776 ft | 374 kts | 224° |
| 2026-04-26 15:55 | 38.06008 | 67.44723 | 15326 ft | 365 kts | 224° |
| 2026-04-26 15:55 | 38.04230 | 67.42475 | 14864 ft | 357 kts | 224° |
| 2026-04-26 15:55 | 38.02494 | 67.40271 | 14410 ft | 349 kts | 224° |
| 2026-04-26 15:56 | 38.00797 | 67.38109 | 13956 ft | 343 kts | 224° |
| 2026-04-26 15:56 | 37.99131 | 67.35973 | 13508 ft | 337 kts | 224° |
| 2026-04-26 15:56 | 37.97498 | 67.33871 | 13049 ft | 332 kts | 224° |
| 2026-04-26 15:56 | 37.95889 | 67.31794 | 12592 ft | 327 kts | 224° |
| 2026-04-26 15:57 | 37.94309 | 67.29744 | 12144 ft | 323 kts | 224° |
| 2026-04-26 15:57 | 37.92775 | 67.27744 | 11696 ft | 319 kts | 224° |
| 2026-04-26 15:57 | 37.91238 | 67.25734 | 11240 ft | 315 kts | 224° |
| 2026-04-26 15:57 | 37.90211 | 67.24395 | 10934 ft | 313 kts | 225° |
| 2026-04-26 15:58 | 37.88207 | 67.21796 | 10346 ft | 309 kts | 225° |
| 2026-04-26 15:58 | 37.86721 | 67.19884 | 10163 ft | 297 kts | 225° |
| 2026-04-26 15:58 | 37.85303 | 67.18068 | 10126 ft | 286 kts | 225° |
| 2026-04-26 15:58 | 37.83903 | 67.16282 | 10310 ft | 281 kts | 225° |
| 2026-04-26 15:59 | 37.82521 | 67.14523 | 10862 ft | 283 kts | 224° |
| 2026-04-26 15:59 | 37.81117 | 67.12729 | 11374 ft | 290 kts | 224° |
| 2026-04-26 15:59 | 37.79700 | 67.10910 | 11888 ft | 297 kts | 224° |
| 2026-04-26 15:59 | 37.78252 | 67.08992 | 12390 ft | 306 kts | 231° |
| 2026-04-26 16:00 | 37.77271 | 67.06572 | 12896 ft | 316 kts | 256° |
| 2026-04-26 16:00 | 37.77082 | 67.03783 | 13433 ft | 322 kts | 271° |
| 2026-04-26 16:00 | 37.77257 | 67.00927 | 13941 ft | 330 kts | 281° |
| 2026-04-26 16:00 | 37.78099 | 66.98206 | 14452 ft | 336 kts | 300° |
| 2026-04-26 16:01 | 37.79344 | 66.95715 | 14968 ft | 343 kts | 303° |
| 2026-04-26 16:01 | 37.80702 | 66.93194 | 15476 ft | 349 kts | 304° |
| 2026-04-26 16:01 | 37.82097 | 66.90651 | 15985 ft | 354 kts | 304° |
| 2026-04-26 16:01 | 37.83513 | 66.88086 | 16482 ft | 356 kts | 304° |
| 2026-04-26 16:02 | 37.84937 | 66.85522 | 16972 ft | 354 kts | 304° |
| 2026-04-26 16:02 | 37.86361 | 66.82972 | 17468 ft | 354 kts | 304° |
| 2026-04-26 16:02 | 37.87785 | 66.80432 | 17966 ft | 354 kts | 304° |
| 2026-04-26 16:02 | 37.88729 | 66.78754 | 18297 ft | 353 kts | 304° |
| 2026-04-26 16:03 | 37.90630 | 66.75384 | 18963 ft | 357 kts | 304° |
| 2026-04-26 16:03 | 37.92086 | 66.72811 | 19467 ft | 360 kts | 304° |
| 2026-04-26 16:03 | 37.93569 | 66.70233 | 19970 ft | 363 kts | 305° |
| 2026-04-26 16:03 | 37.95094 | 66.67651 | 20478 ft | 366 kts | 306° |
| 2026-04-26 16:04 | 37.96634 | 66.65065 | 20973 ft | 369 kts | 306° |
| 2026-04-26 16:04 | 37.98185 | 66.62461 | 21105 ft | 382 kts | 306° |
| 2026-04-26 16:04 | 37.99815 | 66.59716 | 21212 ft | 396 kts | 306° |
| 2026-04-26 16:04 | 38.01493 | 66.56881 | 21304 ft | 408 kts | 306° |
| 2026-04-26 16:05 | 38.03224 | 66.53951 | 21390 ft | 420 kts | 306° |
| 2026-04-26 16:05 | 38.04988 | 66.50956 | 21612 ft | 427 kts | 306° |
| 2026-04-26 16:05 | 38.06776 | 66.47919 | 22014 ft | 429 kts | 306° |
| 2026-04-26 16:05 | 38.08562 | 66.44878 | 22469 ft | 430 kts | 306° |
| 2026-04-26 16:06 | 38.10357 | 66.41822 | 22859 ft | 432 kts | 305° |
| 2026-04-26 16:06 | 38.12155 | 66.38757 | 23206 ft | 434 kts | 305° |
| 2026-04-26 16:06 | 38.13943 | 66.35703 | 23523 ft | 437 kts | 305° |
| 2026-04-26 16:06 | 38.15766 | 66.32587 | 23880 ft | 439 kts | 305° |
| 2026-04-26 16:07 | 38.17592 | 66.29463 | 24218 ft | 441 kts | 305° |
| 2026-04-26 16:07 | 38.19424 | 66.26326 | 24553 ft | 443 kts | 305° |
| 2026-04-26 16:07 | 38.21265 | 66.23170 | 24929 ft | 443 kts | 304° |
| 2026-04-26 16:07 | 38.23100 | 66.20022 | 25309 ft | 443 kts | 304° |
| 2026-04-26 16:08 | 38.24938 | 66.16866 | 25676 ft | 444 kts | 304° |
| 2026-04-26 16:08 | 38.26156 | 66.14773 | 25898 ft | 444 kts | 304° |
| 2026-04-26 16:08 | 38.28605 | 66.10520 | 26292 ft | 445 kts | 301° |
| 2026-04-26 16:08 | 38.30103 | 66.07135 | 26482 ft | 445 kts | 291° |
| 2026-04-26 16:09 | 38.31240 | 66.03463 | 26744 ft | 446 kts | 289° |
| 2026-04-26 16:09 | 38.32340 | 65.99761 | 27043 ft | 446 kts | 288° |
| 2026-04-26 16:09 | 38.33441 | 65.96043 | 27059 ft | 450 kts | 288° |
| 2026-04-26 16:09 | 38.34556 | 65.92301 | 27313 ft | 450 kts | 288° |
| 2026-04-26 16:10 | 38.35670 | 65.88593 | 27737 ft | 446 kts | 288° |
| 2026-04-26 16:10 | 38.36778 | 65.84921 | 28207 ft | 442 kts | 288° |
| 2026-04-26 16:10 | 38.37880 | 65.81288 | 28720 ft | 437 kts | 288° |
| 2026-04-26 16:10 | 38.38974 | 65.77697 | 29185 ft | 433 kts | 288° |
| 2026-04-26 16:11 | 38.40047 | 65.74165 | 29555 ft | 430 kts | 288° |
| 2026-04-26 16:11 | 38.41127 | 65.70607 | 29954 ft | 428 kts | 288° |
| 2026-04-26 16:11 | 38.42198 | 65.67079 | 30344 ft | 425 kts | 288° |
| 2026-04-26 16:11 | 38.43260 | 65.63564 | 30660 ft | 424 kts | 288° |
| 2026-04-26 16:12 | 38.44319 | 65.60051 | 30890 ft | 425 kts | 288° |
| 2026-04-26 16:12 | 38.45381 | 65.56530 | 31112 ft | 426 kts | 288° |
| 2026-04-26 16:12 | 38.47501 | 65.49485 | 31720 ft | 423 kts | 287° |
| 2026-04-26 16:13 | 38.48557 | 65.45972 | 31982 ft | 423 kts | 288° |
| 2026-04-26 16:13 | 38.49597 | 65.42500 | 32185 ft | 424 kts | 288° |
| 2026-04-26 16:13 | 38.50665 | 65.38937 | 32434 ft | 424 kts | 288° |
| 2026-04-26 16:13 | 38.51715 | 65.35429 | 32727 ft | 422 kts | 288° |
| 2026-04-26 16:14 | 38.52750 | 65.31969 | 32956 ft | 422 kts | 288° |
| 2026-04-26 16:14 | 38.53797 | 65.28462 | 33180 ft | 422 kts | 288° |
| 2026-04-26 16:14 | 38.55886 | 65.21456 | 33712 ft | 419 kts | 287° |
| 2026-04-26 16:15 | 38.56921 | 65.17979 | 33967 ft | 418 kts | 287° |
| 2026-04-26 16:15 | 38.57955 | 65.14493 | 34078 ft | 420 kts | 287° |
| 2026-04-26 16:15 | 38.59000 | 65.10968 | 34071 ft | 422 kts | 287° |
| 2026-04-26 16:16 | 38.62093 | 65.00521 | 34081 ft | 418 kts | 287° |
| 2026-04-26 16:16 | 38.64139 | 64.93583 | 34081 ft | 415 kts | 288° |
| 2026-04-26 16:17 | 38.66170 | 64.86684 | 34094 ft | 413 kts | 287° |
| 2026-04-26 16:17 | 38.68191 | 64.79790 | 34094 ft | 413 kts | 288° |
| 2026-04-26 16:18 | 38.71213 | 64.69455 | 34100 ft | 416 kts | 288° |
| 2026-04-26 16:19 | 38.74263 | 64.58989 | 34108 ft | 419 kts | 288° |
| 2026-04-26 16:20 | 38.77326 | 64.48433 | 34112 ft | 422 kts | 288° |
| 2026-04-26 16:20 | 38.80374 | 64.37887 | 34125 ft | 423 kts | 288° |
| 2026-04-26 16:21 | 38.82411 | 64.30818 | 34126 ft | 422 kts | 288° |
| 2026-04-26 16:21 | 38.84444 | 64.23744 | 34116 ft | 421 kts | 288° |
| 2026-04-26 16:22 | 38.86457 | 64.16721 | 34122 ft | 417 kts | 288° |
| 2026-04-26 16:22 | 38.88451 | 64.09749 | 34122 ft | 415 kts | 288° |
| 2026-04-26 16:23 | 38.90433 | 64.02802 | 34130 ft | 413 kts | 287° |
| 2026-04-26 16:23 | 38.92390 | 63.95913 | 34130 ft | 413 kts | 287° |
| 2026-04-26 16:24 | 38.94357 | 63.88969 | 34130 ft | 413 kts | 287° |
| 2026-04-26 16:24 | 38.96316 | 63.82037 | 34135 ft | 415 kts | 287° |
| 2026-04-26 16:25 | 38.98292 | 63.75032 | 34132 ft | 417 kts | 287° |
| 2026-04-26 16:25 | 39.00274 | 63.67988 | 34130 ft | 419 kts | 287° |
| 2026-04-26 16:26 | 39.01921 | 63.62119 | 34131 ft | 420 kts | 287° |
| 2026-04-26 16:26 | 39.04227 | 63.53884 | 34131 ft | 421 kts | 287° |
| 2026-04-26 16:27 | 39.06209 | 63.46779 | 34128 ft | 422 kts | 287° |
| 2026-04-26 16:27 | 39.08191 | 63.39657 | 34131 ft | 422 kts | 287° |
| 2026-04-26 16:28 | 39.10165 | 63.32546 | 34125 ft | 421 kts | 287° |
| 2026-04-26 16:28 | 39.12130 | 63.25444 | 34130 ft | 420 kts | 287° |
| 2026-04-26 16:29 | 39.14087 | 63.18354 | 34128 ft | 419 kts | 287° |
| 2026-04-26 16:29 | 39.16023 | 63.11318 | 34128 ft | 418 kts | 287° |
| 2026-04-26 16:30 | 39.17964 | 63.04248 | 34129 ft | 418 kts | 287° |
| 2026-04-26 16:30 | 39.19899 | 62.97178 | 34135 ft | 416 kts | 287° |
| 2026-04-26 16:31 | 39.21812 | 62.90171 | 34138 ft | 416 kts | 287° |
| 2026-04-26 16:31 | 39.23731 | 62.83124 | 34141 ft | 417 kts | 287° |
| 2026-04-26 16:32 | 39.25327 | 62.77239 | 34140 ft | 418 kts | 287° |
| 2026-04-26 16:32 | 39.27575 | 62.68941 | 34140 ft | 419 kts | 287° |
| 2026-04-26 16:33 | 39.29480 | 62.61882 | 34138 ft | 418 kts | 287° |
| 2026-04-26 16:33 | 39.31390 | 62.54787 | 34138 ft | 418 kts | 287° |
| 2026-04-26 16:34 | 39.33296 | 62.47687 | 34138 ft | 417 kts | 287° |
| 2026-04-26 16:34 | 39.35193 | 62.40602 | 34147 ft | 416 kts | 287° |
| 2026-04-26 16:35 | 39.36763 | 62.34725 | 34147 ft | 416 kts | 287° |
| 2026-04-26 16:35 | 39.38644 | 62.27658 | 34144 ft | 414 kts | 287° |
| 2026-04-26 16:36 | 39.40514 | 62.20615 | 34146 ft | 413 kts | 287° |
| 2026-04-26 16:36 | 39.42365 | 62.13626 | 34147 ft | 413 kts | 287° |
| 2026-04-26 16:37 | 39.44221 | 62.06598 | 34148 ft | 413 kts | 287° |
| 2026-04-26 16:37 | 39.46074 | 61.99557 | 34146 ft | 413 kts | 286° |
| 2026-04-26 16:38 | 39.47924 | 61.92514 | 34151 ft | 413 kts | 286° |
| 2026-04-26 16:38 | 39.49770 | 61.85462 | 34156 ft | 413 kts | 286° |
| 2026-04-26 16:39 | 39.51615 | 61.78392 | 34151 ft | 414 kts | 286° |
| 2026-04-26 16:39 | 39.53449 | 61.71352 | 34154 ft | 414 kts | 286° |
| 2026-04-26 16:40 | 39.55286 | 61.64282 | 34163 ft | 413 kts | 286° |
| 2026-04-26 16:40 | 39.57116 | 61.57214 | 34167 ft | 413 kts | 286° |
| 2026-04-26 16:41 | 39.58941 | 61.50142 | 34165 ft | 413 kts | 286° |
| 2026-04-26 16:41 | 39.60751 | 61.43105 | 34167 ft | 415 kts | 286° |
| 2026-04-26 16:42 | 39.62571 | 61.36021 | 34154 ft | 410 kts | 285° |
| 2026-04-26 16:42 | 39.64357 | 61.29054 | 34159 ft | 404 kts | 285° |
| 2026-04-26 16:43 | 39.66123 | 61.22133 | 34167 ft | 402 kts | 285° |
| 2026-04-26 16:43 | 39.67876 | 61.15238 | 34168 ft | 402 kts | 285° |
| 2026-04-26 16:44 | 39.69613 | 61.08392 | 34176 ft | 401 kts | 285° |
| 2026-04-26 16:44 | 39.71359 | 61.01489 | 34177 ft | 402 kts | 285° |
| 2026-04-26 16:45 | 39.73108 | 60.94560 | 34180 ft | 403 kts | 285° |
| 2026-04-26 16:45 | 39.74856 | 60.87615 | 34176 ft | 405 kts | 285° |
| 2026-04-26 16:46 | 39.76608 | 60.80627 | 34177 ft | 407 kts | 284° |
| 2026-04-26 16:46 | 39.78353 | 60.73651 | 34174 ft | 409 kts | 284° |
| 2026-04-26 16:47 | 39.80115 | 60.66593 | 34182 ft | 411 kts | 284° |
| 2026-04-26 16:47 | 39.81877 | 60.59506 | 34187 ft | 412 kts | 284° |
| 2026-04-26 16:48 | 39.83637 | 60.52409 | 34195 ft | 412 kts | 284° |
| 2026-04-26 16:48 | 39.85394 | 60.45298 | 34201 ft | 412 kts | 284° |
| 2026-04-26 16:49 | 39.87137 | 60.38227 | 34200 ft | 412 kts | 284° |
| 2026-04-26 16:49 | 39.88877 | 60.31105 | 34199 ft | 411 kts | 282° |
| 2026-04-26 16:50 | 39.89635 | 60.23810 | 34208 ft | 405 kts | 268° |
| 2026-04-26 16:50 | 39.89676 | 60.16451 | 34193 ft | 405 kts | 268° |
| 2026-04-26 16:51 | 39.89716 | 60.09115 | 34202 ft | 405 kts | 268° |
| 2026-04-26 16:51 | 39.89772 | 60.01835 | 34200 ft | 405 kts | 268° |
| 2026-04-26 16:52 | 39.89824 | 59.95689 | 34202 ft | 404 kts | 268° |
| 2026-04-26 16:52 | 39.89892 | 59.87175 | 34200 ft | 405 kts | 268° |
| 2026-04-26 16:53 | 39.89946 | 59.79840 | 34202 ft | 405 kts | 268° |
| 2026-04-26 16:53 | 39.89996 | 59.72509 | 34192 ft | 405 kts | 268° |
| 2026-04-26 16:54 | 39.90041 | 59.65218 | 34194 ft | 404 kts | 268° |
| 2026-04-26 16:54 | 39.90081 | 59.57884 | 34185 ft | 405 kts | 268° |
| 2026-04-26 16:55 | 39.90117 | 59.50545 | 34177 ft | 405 kts | 268° |
| 2026-04-26 16:55 | 39.90149 | 59.43200 | 34166 ft | 405 kts | 268° |
| 2026-04-26 16:56 | 39.90179 | 59.32225 | 34169 ft | 406 kts | 268° |
| 2026-04-26 16:57 | 39.90180 | 59.24867 | 34166 ft | 405 kts | 268° |
| 2026-04-26 16:57 | 39.90177 | 59.13848 | 34169 ft | 405 kts | 268° |
| 2026-04-26 16:58 | 39.90170 | 59.07739 | 34164 ft | 405 kts | 268° |
| 2026-04-26 16:59 | 39.90124 | 58.95542 | 34169 ft | 404 kts | 267° |
| 2026-04-26 17:00 | 39.90055 | 58.80903 | 34165 ft | 404 kts | 267° |
| 2026-04-26 17:00 | 39.89991 | 58.69913 | 34165 ft | 405 kts | 267° |
| 2026-04-26 17:01 | 39.89942 | 58.62582 | 34166 ft | 404 kts | 267° |
| 2026-04-26 17:01 | 39.89888 | 58.55245 | 34168 ft | 404 kts | 267° |
| 2026-04-26 17:02 | 39.89833 | 58.47962 | 34166 ft | 405 kts | 267° |
| 2026-04-26 17:02 | 39.89770 | 58.40615 | 34160 ft | 406 kts | 267° |
| 2026-04-26 17:03 | 39.89702 | 58.33244 | 34158 ft | 407 kts | 267° |
| 2026-04-26 17:03 | 39.89630 | 58.25871 | 34151 ft | 408 kts | 267° |
| 2026-04-26 17:04 | 39.89554 | 58.18482 | 34146 ft | 408 kts | 267° |
| 2026-04-26 17:04 | 39.89482 | 58.11091 | 34146 ft | 407 kts | 267° |
| 2026-04-26 17:05 | 39.89424 | 58.03764 | 34148 ft | 406 kts | 267° |
| 2026-04-26 17:05 | 39.89365 | 57.96447 | 34134 ft | 398 kts | 267° |
| 2026-04-26 17:06 | 39.89300 | 57.89304 | 34140 ft | 392 kts | 267° |
| 2026-04-26 17:06 | 39.89228 | 57.82221 | 34149 ft | 390 kts | 267° |
| 2026-04-26 17:07 | 39.89153 | 57.75147 | 34146 ft | 390 kts | 266° |
| 2026-04-26 17:07 | 39.89074 | 57.68092 | 34149 ft | 390 kts | 266° |
| 2026-04-26 17:08 | 39.88990 | 57.61070 | 34151 ft | 390 kts | 266° |
| 2026-04-26 17:08 | 39.88902 | 57.53987 | 34144 ft | 392 kts | 266° |
| 2026-04-26 17:09 | 39.88825 | 57.48077 | 34138 ft | 392 kts | 266° |
| 2026-04-26 17:09 | 39.88712 | 57.39736 | 34141 ft | 394 kts | 266° |
| 2026-04-26 17:10 | 39.88611 | 57.32626 | 34140 ft | 396 kts | 266° |
| 2026-04-26 17:10 | 39.88503 | 57.25436 | 34135 ft | 397 kts | 266° |
| 2026-04-26 17:11 | 39.88391 | 57.18232 | 34131 ft | 398 kts | 266° |
| 2026-04-26 17:11 | 39.88276 | 57.11015 | 34129 ft | 399 kts | 266° |
| 2026-04-26 17:12 | 39.88093 | 57.00158 | 34130 ft | 400 kts | 266° |
| 2026-04-26 17:13 | 39.87900 | 56.89342 | 34129 ft | 400 kts | 266° |
| 2026-04-26 17:14 | 39.87698 | 56.78542 | 34119 ft | 396 kts | 266° |
| 2026-04-26 17:14 | 39.87487 | 56.67831 | 34131 ft | 396 kts | 266° |
| 2026-04-26 17:15 | 39.87263 | 56.57101 | 34134 ft | 396 kts | 266° |
| 2026-04-26 17:16 | 39.87111 | 56.49908 | 34125 ft | 396 kts | 266° |
| 2026-04-26 17:16 | 39.86957 | 56.42783 | 34119 ft | 390 kts | 266° |
| 2026-04-26 17:17 | 39.86798 | 56.35744 | 34131 ft | 389 kts | 265° |
| 2026-04-26 17:17 | 39.86635 | 56.28697 | 34139 ft | 391 kts | 265° |
| 2026-04-26 17:18 | 39.86466 | 56.21600 | 34131 ft | 392 kts | 265° |
| 2026-04-26 17:18 | 39.86299 | 56.14541 | 34129 ft | 393 kts | 265° |
| 2026-04-26 17:19 | 39.86039 | 56.03833 | 34120 ft | 394 kts | 265° |
| 2026-04-26 17:19 | 39.85861 | 55.96696 | 34118 ft | 394 kts | 265° |
| 2026-04-26 17:20 | 39.85740 | 55.91962 | 34119 ft | 394 kts | 265° |
| 2026-04-26 17:20 | 39.85492 | 55.82487 | 34116 ft | 392 kts | 265° |
| 2026-04-26 17:21 | 39.85335 | 55.76596 | 34118 ft | 391 kts | 265° |
| 2026-04-26 17:21 | 39.85141 | 55.69536 | 34118 ft | 390 kts | 265° |
| 2026-04-26 17:22 | 39.84945 | 55.62500 | 34114 ft | 389 kts | 265° |
| 2026-04-26 17:22 | 39.84743 | 55.55467 | 34124 ft | 388 kts | 265° |
| 2026-04-26 17:23 | 39.84537 | 55.48436 | 34120 ft | 388 kts | 265° |
| 2026-04-26 17:23 | 39.84326 | 55.41406 | 34120 ft | 389 kts | 265° |
| 2026-04-26 17:24 | 39.84113 | 55.34399 | 34112 ft | 389 kts | 265° |
| 2026-04-26 17:24 | 39.83895 | 55.27345 | 34111 ft | 390 kts | 265° |
| 2026-04-26 17:25 | 39.83671 | 55.20282 | 34111 ft | 390 kts | 265° |
| 2026-04-26 17:25 | 39.83446 | 55.13218 | 34113 ft | 391 kts | 265° |
| 2026-04-26 17:26 | 39.83215 | 55.06152 | 34108 ft | 391 kts | 265° |
| 2026-04-26 17:26 | 39.82999 | 54.99116 | 34113 ft | 391 kts | 266° |
| 2026-04-26 17:27 | 39.82802 | 54.92042 | 34114 ft | 391 kts | 266° |
| 2026-04-26 17:27 | 39.82597 | 54.84969 | 34104 ft | 389 kts | 266° |
| 2026-04-26 17:28 | 39.82438 | 54.77959 | 34102 ft | 387 kts | 270° |
| 2026-04-26 17:28 | 39.83361 | 54.71103 | 34117 ft | 389 kts | 282° |
| 2026-04-26 17:29 | 39.84608 | 54.65437 | 34104 ft | 388 kts | 282° |
| 2026-04-26 17:29 | 39.86311 | 54.57583 | 34114 ft | 387 kts | 282° |
| 2026-04-26 17:30 | 39.87749 | 54.50815 | 34114 ft | 388 kts | 282° |
| 2026-04-26 17:30 | 39.89184 | 54.44028 | 34102 ft | 389 kts | 282° |
| 2026-04-26 17:31 | 39.90600 | 54.37268 | 34104 ft | 389 kts | 282° |
| 2026-04-26 17:31 | 39.92016 | 54.30465 | 34097 ft | 388 kts | 282° |
| 2026-04-26 17:32 | 39.93428 | 54.23671 | 34106 ft | 388 kts | 282° |
| 2026-04-26 17:32 | 39.94838 | 54.16868 | 34095 ft | 388 kts | 282° |
| 2026-04-26 17:33 | 39.96231 | 54.10126 | 34100 ft | 387 kts | 282° |
| 2026-04-26 17:34 | 39.98325 | 53.99950 | 34100 ft | 387 kts | 282° |
| 2026-04-26 17:34 | 39.99717 | 53.93153 | 34105 ft | 387 kts | 282° |
| 2026-04-26 17:35 | 40.01103 | 53.86367 | 34097 ft | 387 kts | 282° |
| 2026-04-26 17:35 | 40.02475 | 53.79628 | 34104 ft | 387 kts | 282° |
| 2026-04-26 17:36 | 40.03856 | 53.72823 | 34102 ft | 387 kts | 282° |
| 2026-04-26 17:36 | 40.05229 | 53.66028 | 34100 ft | 387 kts | 281° |
| 2026-04-26 17:37 | 40.06600 | 53.59233 | 34102 ft | 387 kts | 281° |
| 2026-04-26 17:37 | 40.07966 | 53.52434 | 34101 ft | 387 kts | 281° |
| 2026-04-26 17:38 | 40.09995 | 53.42294 | 34104 ft | 386 kts | 281° |
| 2026-04-26 17:38 | 40.11348 | 53.35500 | 34102 ft | 386 kts | 281° |
| 2026-04-26 17:39 | 40.12698 | 53.28699 | 34106 ft | 386 kts | 281° |
| 2026-04-26 17:39 | 40.14044 | 53.21900 | 34101 ft | 386 kts | 281° |
| 2026-04-26 17:40 | 40.15159 | 53.16254 | 34098 ft | 386 kts | 281° |
| 2026-04-26 17:40 | 40.16714 | 53.08326 | 34113 ft | 391 kts | 281° |
| 2026-04-26 17:41 | 40.18077 | 53.01378 | 34107 ft | 395 kts | 281° |
| 2026-04-26 17:41 | 40.19442 | 52.94390 | 34102 ft | 396 kts | 281° |
| 2026-04-26 17:42 | 40.20803 | 52.87395 | 34102 ft | 397 kts | 280° |
| 2026-04-26 17:42 | 40.22152 | 52.80438 | 34099 ft | 396 kts | 280° |
| 2026-04-26 17:43 | 40.23499 | 52.73471 | 34088 ft | 392 kts | 280° |
| 2026-04-26 17:43 | 40.24829 | 52.66567 | 34103 ft | 391 kts | 280° |
| 2026-04-26 17:44 | 40.26154 | 52.59657 | 34112 ft | 394 kts | 280° |
| 2026-04-26 17:44 | 40.27493 | 52.52666 | 34104 ft | 397 kts | 280° |
| 2026-04-26 17:45 | 40.28837 | 52.45635 | 34102 ft | 398 kts | 280° |
| 2026-04-26 17:45 | 40.30180 | 52.38586 | 34025 ft | 399 kts | 280° |
| 2026-04-26 17:46 | 40.30855 | 52.35033 | 33475 ft | 401 kts | 280° |
| 2026-04-26 17:46 | 40.31527 | 52.31495 | 33020 ft | 398 kts | 280° |
| 2026-04-26 17:46 | 40.32195 | 52.27972 | 32544 ft | 397 kts | 280° |
| 2026-04-26 17:46 | 40.32861 | 52.24444 | 32077 ft | 400 kts | 280° |
| 2026-04-26 17:47 | 40.33520 | 52.20940 | 31610 ft | 401 kts | 280° |
| 2026-04-26 17:47 | 40.33975 | 52.18527 | 31261 ft | 403 kts | 280° |
| 2026-04-26 17:47 | 40.34867 | 52.13771 | 30572 ft | 407 kts | 281° |
| 2026-04-26 17:47 | 40.35544 | 52.10160 | 30054 ft | 409 kts | 281° |
| 2026-04-26 17:48 | 40.36225 | 52.06523 | 29529 ft | 410 kts | 281° |
| 2026-04-26 17:48 | 40.36905 | 52.02887 | 28992 ft | 409 kts | 281° |
| 2026-04-26 17:48 | 40.37571 | 51.99323 | 28442 ft | 406 kts | 281° |
| 2026-04-26 17:48 | 40.38240 | 51.95736 | 27895 ft | 404 kts | 281° |
| 2026-04-26 17:49 | 40.38906 | 51.92149 | 27341 ft | 403 kts | 281° |
| 2026-04-26 17:49 | 40.39565 | 51.88595 | 26797 ft | 401 kts | 281° |
| 2026-04-26 17:49 | 40.40222 | 51.85047 | 26247 ft | 398 kts | 281° |
| 2026-04-26 17:49 | 40.40875 | 51.81520 | 25695 ft | 395 kts | 281° |
| 2026-04-26 17:50 | 40.41519 | 51.78034 | 25137 ft | 389 kts | 281° |
| 2026-04-26 17:50 | 40.42151 | 51.74605 | 24584 ft | 384 kts | 281° |
| 2026-04-26 17:50 | 40.42772 | 51.71216 | 24031 ft | 379 kts | 281° |
| 2026-04-26 17:50 | 40.43386 | 51.67871 | 23480 ft | 375 kts | 281° |
| 2026-04-26 17:51 | 40.43991 | 51.64568 | 22931 ft | 370 kts | 281° |
| 2026-04-26 17:51 | 40.44589 | 51.61290 | 22396 ft | 366 kts | 281° |
| 2026-04-26 17:51 | 40.45184 | 51.58033 | 22204 ft | 369 kts | 281° |
| 2026-04-26 17:51 | 40.45782 | 51.54750 | 22114 ft | 369 kts | 281° |
| 2026-04-26 17:52 | 40.46375 | 51.51489 | 22080 ft | 366 kts | 281° |
| 2026-04-26 17:52 | 40.46871 | 51.48205 | 22080 ft | 366 kts | 276° |
| 2026-04-26 17:52 | 40.47200 | 51.44883 | 22080 ft | 366 kts | 275° |
| 2026-04-26 17:52 | 40.47498 | 51.41557 | 22074 ft | 366 kts | 275° |
| 2026-04-26 17:53 | 40.47789 | 51.38274 | 22068 ft | 365 kts | 275° |
| 2026-04-26 17:53 | 40.48087 | 51.34960 | 22070 ft | 366 kts | 275° |
| 2026-04-26 17:53 | 40.48388 | 51.31643 | 22077 ft | 366 kts | 275° |
| 2026-04-26 17:54 | 40.49000 | 51.24984 | 21929 ft | 368 kts | 275° |
| 2026-04-26 17:54 | 40.49309 | 51.21638 | 21402 ft | 368 kts | 275° |
| 2026-04-26 17:54 | 40.49616 | 51.18319 | 20855 ft | 363 kts | 275° |
| 2026-04-26 17:54 | 40.49918 | 51.15040 | 20270 ft | 360 kts | 275° |
| 2026-04-26 17:55 | 40.50217 | 51.11780 | 19664 ft | 359 kts | 275° |
| 2026-04-26 17:55 | 40.50513 | 51.08529 | 19041 ft | 357 kts | 275° |
| 2026-04-26 17:55 | 40.50808 | 51.05299 | 18416 ft | 354 kts | 275° |
| 2026-04-26 17:55 | 40.51099 | 51.02097 | 17798 ft | 351 kts | 275° |
| 2026-04-26 17:56 | 40.51388 | 50.98914 | 17173 ft | 349 kts | 275° |
| 2026-04-26 17:56 | 40.51953 | 50.92677 | 15922 ft | 344 kts | 276° |
| 2026-04-26 17:57 | 40.53139 | 50.86613 | 14680 ft | 342 kts | 285° |
| 2026-04-26 17:57 | 40.53889 | 50.83655 | 14055 ft | 340 kts | 286° |
| 2026-04-26 17:57 | 40.54629 | 50.80724 | 13567 ft | 334 kts | 285° |
| 2026-04-26 17:57 | 40.55342 | 50.77843 | 13137 ft | 327 kts | 285° |
| 2026-04-26 17:58 | 40.57338 | 50.69490 | 11849 ft | 311 kts | 284° |
| 2026-04-26 17:59 | 40.58589 | 50.64155 | 10996 ft | 303 kts | 284° |
| 2026-04-26 17:59 | 40.59205 | 50.61527 | 10699 ft | 296 kts | 284° |
| 2026-04-26 17:59 | 40.59798 | 50.58998 | 10581 ft | 283 kts | 284° |
| 2026-04-26 17:59 | 40.60375 | 50.56529 | 10307 ft | 283 kts | 284° |
| 2026-04-26 18:00 | 40.60953 | 50.54046 | 9923 ft | 286 kts | 284° |
| 2026-04-26 18:00 | 40.61540 | 50.51527 | 9501 ft | 288 kts | 284° |
| 2026-04-26 18:00 | 40.62111 | 50.49080 | 9085 ft | 287 kts | 284° |
| 2026-04-26 18:00 | 40.62696 | 50.46566 | 8659 ft | 286 kts | 284° |
| 2026-04-26 18:01 | 40.63279 | 50.44067 | 8237 ft | 286 kts | 284° |
| 2026-04-26 18:01 | 40.63859 | 50.41563 | 7813 ft | 285 kts | 284° |
| 2026-04-26 18:01 | 40.64431 | 50.39093 | 7393 ft | 285 kts | 284° |
| 2026-04-26 18:01 | 40.65010 | 50.36605 | 6969 ft | 284 kts | 284° |
| 2026-04-26 18:02 | 40.65587 | 50.34116 | 6549 ft | 284 kts | 284° |
| 2026-04-26 18:02 | 40.65782 | 50.33275 | 6407 ft | 284 kts | 284° |
| 2026-04-26 18:02 | 40.66503 | 50.29102 | 5688 ft | 275 kts | 262° |
| 2026-04-26 18:02 | 40.66243 | 50.26645 | 5316 ft | 269 kts | 257° |
| 2026-04-26 18:03 | 40.65936 | 50.24215 | 4917 ft | 268 kts | 257° |
| 2026-04-26 18:03 | 40.65732 | 50.22611 | 4653 ft | 267 kts | 257° |
| 2026-04-26 18:03 | 40.65333 | 50.19428 | 4118 ft | 264 kts | 258° |
| 2026-04-26 18:03 | 40.65039 | 50.17045 | 3724 ft | 263 kts | 258° |
| 2026-04-26 18:04 | 40.64843 | 50.15443 | 3451 ft | 262 kts | 258° |
| 2026-04-26 18:04 | 40.64553 | 50.13082 | 3054 ft | 260 kts | 258° |
| 2026-04-26 18:04 | 40.64265 | 50.10732 | 2680 ft | 258 kts | 258° |
| 2026-04-26 18:05 | 40.63258 | 50.06425 | 2144 ft | 238 kts | 222° |
| 2026-04-26 18:05 | 40.61834 | 50.05506 | 2014 ft | 222 kts | 182° |
| 2026-04-26 18:05 | 40.60367 | 50.05807 | 2011 ft | 213 kts | 168° |
| 2026-04-26 18:05 | 40.58935 | 50.06041 | 1998 ft | 197 kts | 174° |
| 2026-04-26 18:06 | 40.57615 | 50.06138 | 1777 ft | 182 kts | 178° |
| 2026-04-26 18:06 | 40.56408 | 50.06163 | 1561 ft | 167 kts | 179° |
| 2026-04-26 18:06 | 40.55269 | 50.06178 | 1362 ft | 160 kts | 179° |
| 2026-04-26 18:06 | 40.54199 | 50.06195 | 1171 ft | 151 kts | 179° |
| 2026-04-26 18:07 | 40.53171 | 50.06212 | 957 ft | 148 kts | 179° |
| 2026-04-26 18:07 | 40.52144 | 50.06226 | 758 ft | 147 kts | 179° |
| 2026-04-26 18:07 | 40.51115 | 50.06241 | 568 ft | 148 kts | 179° |
| 2026-04-26 18:07 | 40.50431 | 50.06252 | 448 ft | 150 kts | 179° |
| 2026-04-26 18:08 | 40.49020 | 50.06276 | 155 ft | 154 kts | 179° |
| 2026-04-26 18:08 | 40.47972 | 50.06294 | 17 ft | 144 kts | 179° |
| 2026-04-26 18:08 | 40.47103 | 50.06304 | 10 ft | 104 kts | 180° |
| 2026-04-26 18:08 | 40.46526 | 50.06316 | 13 ft | 62 kts | 179° |
| 2026-04-26 18:09 | 40.46192 | 50.06322 | 11 ft | 45 kts | 179° |
| 2026-04-26 18:09 | 40.45925 | 50.06322 | 9 ft | 24 kts | 180° |
| 2026-04-26 18:09 | 40.45847 | 50.06247 | 11 ft | 15 kts | 262° |
| 2026-04-26 18:09 | 40.45843 | 50.06143 | 13 ft | 0 kts | 269° |
| 2026-04-26 18:11 | 40.45844 | 50.06138 | 13 ft | 0 kts | 279° |
| 2026-04-26 18:11 | 40.45847 | 50.06125 | 13 ft | 4 kts | 282° |
| 2026-04-26 18:12 | 40.45845 | 50.06074 | 13 ft | 8 kts | 265° |
| 2026-04-26 18:12 | 40.45861 | 50.05992 | 16 ft | 11 kts | 314° |
| 2026-04-26 18:12 | 40.45949 | 50.05967 | 14 ft | 15 kts | 359° |
| 2026-04-26 18:12 | 40.46067 | 50.05964 | 14 ft | 19 kts | 359° |
| 2026-04-26 18:13 | 40.46185 | 50.05963 | 15 ft | 15 kts | 359° |
| 2026-04-26 18:13 | 40.46298 | 50.05962 | 14 ft | 17 kts | 359° |
| 2026-04-26 18:13 | 40.46398 | 50.05961 | 14 ft | 13 kts | 359° |
| 2026-04-26 18:13 | 40.46463 | 50.05960 | 14 ft | 15 kts | 359° |
| 2026-04-26 18:14 | 40.46516 | 50.05814 | 14 ft | 16 kts | 268° |
| 2026-04-26 18:14 | 40.46511 | 50.05660 | 14 ft | 16 kts | 268° |
| 2026-04-26 18:14 | 40.46584 | 50.05546 | 14 ft | 18 kts | 324° |
| 2026-04-26 18:14 | 40.46688 | 50.05462 | 14 ft | 17 kts | 330° |
| 2026-04-26 18:15 | 40.46761 | 50.05415 | 14 ft | 0 kts | 336° |
| 2026-04-26 18:15 | 40.46765 | 50.05412 | 14 ft | 2 kts | 335° |
| 2026-04-26 18:15 | 40.46770 | 50.05409 | 16 ft | 1 kts | 335° |
| 2026-04-26 18:15 | 40.46771 | 50.05408 | 14 ft | 0 kts | 335° |
| 2026-04-26 18:16 | 40.46782 | 50.05403 | 14 ft | 4 kts | 339° |
| 2026-04-26 18:16 | 40.46890 | 50.05373 | 14 ft | 12 kts | 328° |
| 2026-04-26 18:16 | 40.46923 | 50.05265 | 14 ft | 15 kts | 269° |
| 2026-04-26 18:17 | 40.46915 | 50.05169 | 15 ft | 9 kts | 235° |
| 2026-04-26 18:17 | 40.46849 | 50.05154 | 15 ft | 12 kts | 180° |
| 2026-04-26 18:17 | 40.46764 | 50.05156 | 14 ft | 9 kts | 179° |
| 2026-04-26 18:17 | 40.46735 | 50.05157 | 14 ft | 0 kts | 178° |